^^
Paulen-Weather Station Historical Data
Daily Summary for August 05, 2022 Units:  Metric    English   Both
Daily Weekly Monthly Yearly Custom
  High: Low: Average:
Temperature: 14 °C 12 °C 12.4 °C
Dew Point: 13 °C 9 °C 10.3 °C
Humidity: 93% 82% 87%
Wind Speed: 17km/h 4km/h 8.9km/h
Wind Gust: 12km/h - -
Wind- - West
Pressure: 1012.7 hPa 1011.48 hPa -
Precipitation: 0 mm    
Historical Graphs
 
 
Tabular Data for August 05, 2022
Time Temperature Dew Point Pressure Wind Wind Speed Wind Gust Humidity Rainfall Rate (Hourly) solar
00:04 14 °C 13 °C 1011.48 hPa WSW 13 km/h 9 km/h 93% 0 mm 0 W/m2
00:09 14 °C 13 °C 1011.48 hPa SW 11 km/h 8 km/h 93% 0 mm 0 W/m2
00:14 14 °C 13 °C 1011.62 hPa WSW 8 km/h 6 km/h 93% 0 mm 0 W/m2
00:19 14 °C 13 °C 1011.72 hPa WSW 10 km/h 7 km/h 93% 0 mm 0 W/m2
00:24 14 °C 13 °C 1011.82 hPa W 8 km/h 7 km/h 93% 0 mm 0 W/m2
00:29 14 °C 12 °C 1011.89 hPa W 9 km/h 7 km/h 93% 0 mm 0 W/m2
00:34 13 °C 12 °C 1011.92 hPa WSW 9 km/h 7 km/h 93% 0 mm 0 W/m2
00:39 13 °C 12 °C 1011.99 hPa W 7 km/h 6 km/h 93% 0 mm 0 W/m2
00:44 13 °C 12 °C 1011.99 hPa W 9 km/h 7 km/h 92% 0 mm 0 W/m2
00:49 13 °C 12 °C 1012.06 hPa W 10 km/h 7 km/h 92% 0 mm 0 W/m2
00:54 13 °C 12 °C 1012.09 hPa W 7 km/h 6 km/h 92% 0 mm 0 W/m2
00:59 13 °C 12 °C 1012.19 hPa WSW 7 km/h 6 km/h 92% 0 mm 0 W/m2
01:04 13 °C 12 °C 1012.23 hPa WSW 6 km/h 5 km/h 92% 0 mm 0 W/m2
01:09 13 °C 12 °C 1012.26 hPa W 8 km/h 6 km/h 91% 0 mm 0 W/m2
01:14 13 °C 12 °C 1012.26 hPa W 7 km/h 6 km/h 91% 0 mm 0 W/m2
01:19 13 °C 11 °C 1012.29 hPa WNW 7 km/h 6 km/h 91% 0 mm 0 W/m2
01:24 13 °C 11 °C 1012.26 hPa W 6 km/h 5 km/h 91% 0 mm 0 W/m2
01:29 13 °C 11 °C 1012.29 hPa W 7 km/h 5 km/h 90% 0 mm 0 W/m2
01:34 13 °C 11 °C 1012.26 hPa W 7 km/h 6 km/h 90% 0 mm 0 W/m2
01:39 13 °C 11 °C 1012.26 hPa WSW 5 km/h 5 km/h 90% 0 mm 0 W/m2
01:44 12 °C 11 °C 1012.29 hPa W 10 km/h 8 km/h 89% 0 mm 0 W/m2
01:49 12 °C 11 °C 1012.23 hPa W 9 km/h 7 km/h 88% 0 mm 0 W/m2
01:54 12 °C 10 °C 1012.23 hPa W 9 km/h 7 km/h 88% 0 mm 0 W/m2
01:59 12 °C 10 °C 1012.23 hPa W 9 km/h 7 km/h 88% 0 mm 0 W/m2
02:04 12 °C 10 °C 1012.36 hPa W 9 km/h 6 km/h 87% 0 mm 0 W/m2
02:09 12 °C 10 °C 1012.36 hPa W 9 km/h 7 km/h 87% 0 mm 0 W/m2
02:14 12 °C 10 °C 1012.43 hPa W 7 km/h 5 km/h 87% 0 mm 0 W/m2
02:19 12 °C 10 °C 1012.43 hPa WSW 7 km/h 5 km/h 87% 0 mm 0 W/m2
02:24 12 °C 10 °C 1012.43 hPa WSW 10 km/h 6 km/h 87% 0 mm 0 W/m2
02:29 12 °C 10 °C 1012.46 hPa W 7 km/h 6 km/h 86% 0 mm 0 W/m2
02:34 12 °C 10 °C 1012.5 hPa WSW 10 km/h 8 km/h 86% 0 mm 0 W/m2
02:39 12 °C 10 °C 1012.46 hPa WSW 8 km/h 8 km/h 86% 0 mm 0 W/m2
02:44 12 °C 10 °C 1012.43 hPa WSW 10 km/h 9 km/h 86% 0 mm 0 W/m2
02:49 12 °C 10 °C 1012.43 hPa WSW 9 km/h 6 km/h 86% 0 mm 0 W/m2
02:54 12 °C 10 °C 1012.43 hPa WSW 10 km/h 8 km/h 85% 0 mm 0 W/m2
02:59 12 °C 10 °C 1012.5 hPa WSW 9 km/h 7 km/h 85% 0 mm 0 W/m2
03:04 12 °C 10 °C 1012.56 hPa W 8 km/h 6 km/h 85% 0 mm 0 W/m2
03:09 12 °C 9 °C 1012.56 hPa WNW 10 km/h 8 km/h 85% 0 mm 0 W/m2
03:14 12 °C 9 °C 1012.63 hPa WNW 8 km/h 7 km/h 85% 0 mm 0 W/m2
03:19 12 °C 9 °C 1012.63 hPa WNW 9 km/h 7 km/h 84% 0 mm 0 W/m2
03:24 12 °C 9 °C 1012.67 hPa WNW 10 km/h 9 km/h 84% 0 mm 0 W/m2
03:29 12 °C 9 °C 1012.6 hPa WNW 13 km/h 11 km/h 83% 0 mm 0 W/m2
03:34 12 °C 9 °C 1012.63 hPa WNW 12 km/h 11 km/h 83% 0 mm 0 W/m2
03:39 12 °C 9 °C 1012.7 hPa WNW 11 km/h 8 km/h 82% 0 mm 0 W/m2
03:44 12 °C 9 °C 1012.7 hPa WNW 13 km/h 10 km/h 82% 0 mm 0 W/m2
03:49 12 °C 9 °C 1012.63 hPa WNW 15 km/h 11 km/h 82% 0 mm 0 W/m2
03:54 12 °C 9 °C 1012.56 hPa W 17 km/h 12 km/h 82% 0 mm 0 W/m2
03:59 12 °C 9 °C 1012.56 hPa W 13 km/h 9 km/h 82% 0 mm 0 W/m2
04:04 12 °C 9 °C 1012.56 hPa WNW 11 km/h 9 km/h 82% 0 mm 0 W/m2
04:09 12 °C 9 °C 1012.5 hPa W 10 km/h 10 km/h 82% 0 mm 0 W/m2
04:14 12 °C 9 °C 1012.5 hPa W 13 km/h 10 km/h 83% 0 mm 0 W/m2
04:19 12 °C 9 °C 1012.5 hPa W 11 km/h 8 km/h 83% 0 mm 0 W/m2
04:24 12 °C 9 °C 1012.53 hPa W 10 km/h 8 km/h 83% 0 mm 0 W/m2
04:29 12 °C 9 °C 1012.53 hPa WSW 6 km/h 6 km/h 83% 0 mm 0 W/m2
04:34 12 °C 9 °C 1012.5 hPa W 7 km/h 5 km/h 83% 0 mm 0 W/m2
04:39 12 °C 9 °C 1012.53 hPa WSW 7 km/h 5 km/h 84% 0 mm 0 W/m2
04:44 12 °C 9 °C 1012.53 hPa W 5 km/h 3 km/h 84% 0 mm 0 W/m2
04:49 12 °C 9 °C 1012.53 hPa W 5 km/h 4 km/h 84% 0 mm 0 W/m2
04:54 12 °C 9 °C 1012.63 hPa W 5 km/h 5 km/h 84% 0 mm 0 W/m2
04:59 12 °C 9 °C 1012.63 hPa WSW 4 km/h 3 km/h 84% 0 mm 0 W/m2
05:04 12 °C 9 °C 1012.67 hPa WSW 4 km/h 4 km/h 85% 0 mm 0 W/m2
Compliments of Weather Underground - 2 mb